^^
Station Historical Data
Daily Summary for January 27, 2018 Units:  Both    English   Metric
« Previous Day
Next Day »
Daily Weekly Monthly Yearly Custom
  High: Low: Average:
Temperature: TemperatureF °F /  -17.8 °C 62.1 °F /  16.7 °C 76.1 °F /  24.5 °C
Dew Point: DewpointF °F /  -17.8 °C 33.8 °F /  1 °C 44 °F /  6.7 °C
Humidity: Humidity% 18% 33%
Wind Speed: WindSpeedMPHmph /  0km/h - 1.5mph /  2.4km/h
Wind Gust: WindSpeedGustMPHmph /  0km/h - -
Wind- - SW
Pressure: PressureIn in /  0 hPa 29.57 in /  1001.2 hPa -
Precipitation: 0.00 in /  0 mm    
Historical Graphs
 
 
Tabular Data for January 27, 2018
Time Temperature Dew Point Pressure Wind Wind Speed Wind Gust Humidity Rainfall Rate (Hourly) solar Conditions
TemperatureF °F /  -17.8 °C DewpointF °F /  -17.8 °C PressureInin /  0hPa Calm     Humidity% HourlyPrecipInin /  0mm SolarRadiationWatts/m^2 W/m2 Conditions
00:02 70.9 °F /  21.6 °C 37.9 °F /  3.3 °C 29.68in /  1005hPa SE 2.0mph /  3.2km/h 3.0mph /  4.8km/h 30% 0.00in /  0mm 0.0 W/m2
00:07 70.9 °F /  21.6 °C 37.9 °F /  3.3 °C 29.68in /  1005hPa SE 2.9mph /  4.7km/h 4.0mph /  6.4km/h 30% 0.00in /  0mm 0.0 W/m2
00:12 70.9 °F /  21.6 °C 37.9 °F /  3.3 °C 29.68in /  1005hPa Calm   3.0mph /  4.8km/h 30% 0.00in /  0mm 0.0 W/m2
00:17 70.9 °F /  21.6 °C 37.9 °F /  3.3 °C 29.67in /  1004.6hPa Calm   1.0mph /  1.6km/h 30% 0.00in /  0mm 0.0 W/m2
00:22 70.9 °F /  21.6 °C 37.0 °F /  2.8 °C 29.67in /  1004.6hPa SE 0.9mph /  1.4km/h 5.0mph /  8km/h 29% 0.00in /  0mm 0.0 W/m2
00:27 70.9 °F /  21.6 °C 37.9 °F /  3.3 °C 29.67in /  1004.6hPa Calm   1.0mph /  1.6km/h 30% 0.00in /  0mm 0.0 W/m2
00:32 70.9 °F /  21.6 °C 37.9 °F /  3.3 °C 29.67in /  1004.6hPa Calm   2.0mph /  3.2km/h 30% 0.00in /  0mm 0.0 W/m2
00:37 70.9 °F /  21.6 °C 37.9 °F /  3.3 °C 29.68in /  1005hPa Calm     30% 0.00in /  0mm 0.0 W/m2
00:42 70.7 °F /  21.5 °C 36.9 °F /  2.7 °C 29.68in /  1005hPa Calm   1.0mph /  1.6km/h 29% 0.00in /  0mm 0.0 W/m2
00:47 70.7 °F /  21.5 °C 37.8 °F /  3.2 °C 29.68in /  1005hPa Calm     30% 0.00in /  0mm 0.0 W/m2
00:53 70.5 °F /  21.4 °C 37.6 °F /  3.1 °C 29.68in /  1005hPa Calm     30% 0.00in /  0mm 0.0 W/m2
00:58 70.3 °F /  21.3 °C 38.3 °F /  3.5 °C 29.68in /  1005hPa Calm     31% 0.00in /  0mm 0.0 W/m2
01:03 70.2 °F /  21.2 °C 37.2 °F /  2.9 °C 29.68in /  1005hPa Calm   1.0mph /  1.6km/h 30% 0.00in /  0mm 0.0 W/m2
01:08 70.2 °F /  21.2 °C 38.1 °F /  3.4 °C 29.68in /  1005hPa Calm     31% 0.00in /  0mm 0.0 W/m2
01:13 70.0 °F /  21.1 °C 37.0 °F /  2.8 °C 29.68in /  1005hPa SSE 2.0mph /  3.2km/h 5.0mph /  8km/h 30% 0.00in /  0mm 0.0 W/m2
01:18 70.0 °F /  21.1 °C 37.0 °F /  2.8 °C 29.68in /  1005hPa Calm     30% 0.00in /  0mm 0.0 W/m2
01:23 70.0 °F /  21.1 °C 37.9 °F /  3.3 °C 29.68in /  1005hPa Calm     31% 0.00in /  0mm 0.0 W/m2
01:28 70.0 °F /  21.1 °C 37.9 °F /  3.3 °C 29.68in /  1005hPa Calm     31% 0.00in /  0mm 0.0 W/m2
01:34 69.6 °F /  20.9 °C 36.9 °F /  2.7 °C 29.67in /  1004.6hPa Calm   1.0mph /  1.6km/h 30% 0.00in /  0mm 0.0 W/m2
01:39 69.6 °F /  20.9 °C 36.9 °F /  2.7 °C 29.67in /  1004.6hPa Calm   2.0mph /  3.2km/h 30% 0.00in /  0mm 0.0 W/m2
01:44 69.6 °F /  20.9 °C 36.0 °F /  2.2 °C 29.67in /  1004.6hPa Calm     29% 0.00in /  0mm 0.0 W/m2
01:49 69.6 °F /  20.9 °C 36.0 °F /  2.2 °C 29.67in /  1004.6hPa Calm     29% 0.00in /  0mm 0.0 W/m2
01:54 69.6 °F /  20.9 °C 36.0 °F /  2.2 °C 29.67in /  1004.6hPa Calm   1.0mph /  1.6km/h 29% 0.00in /  0mm 0.0 W/m2
01:59 69.6 °F /  20.9 °C 36.0 °F /  2.2 °C 29.67in /  1004.6hPa SE 0.9mph /  1.4km/h 5.0mph /  8km/h 29% 0.00in /  0mm 0.0 W/m2
02:04 70.0 °F /  21.1 °C 36.3 °F /  2.4 °C 29.67in /  1004.6hPa Calm   2.0mph /  3.2km/h 29% 0.00in /  0mm 0.0 W/m2
02:09 70.0 °F /  21.1 °C 36.3 °F /  2.4 °C 29.67in /  1004.6hPa South 0.9mph /  1.4km/h 1.0mph /  1.6km/h 29% 0.00in /  0mm 0.0 W/m2
02:15 70.2 °F /  21.2 °C 37.2 °F /  2.9 °C 29.67in /  1004.6hPa SSE 2.0mph /  3.2km/h 3.0mph /  4.8km/h 30% 0.00in /  0mm 0.0 W/m2
02:20 70.3 °F /  21.3 °C 37.4 °F /  3 °C 29.67in /  1004.6hPa SE 0.9mph /  1.4km/h 1.0mph /  1.6km/h 30% 0.00in /  0mm 0.0 W/m2
02:25 70.3 °F /  21.3 °C 37.4 °F /  3 °C 29.67in /  1004.6hPa Calm     30% 0.00in /  0mm 0.0 W/m2
02:30 70.3 °F /  21.3 °C 37.4 °F /  3 °C 29.67in /  1004.6hPa Calm   4.0mph /  6.4km/h 30% 0.00in /  0mm 0.0 W/m2
02:35 69.8 °F /  21 °C 37.8 °F /  3.2 °C 29.67in /  1004.6hPa ENE 4.0mph /  6.4km/h 7.0mph /  11.3km/h 31% 0.00in /  0mm 0.0 W/m2
02:40 69.3 °F /  20.7 °C 38.1 °F /  3.4 °C 29.67in /  1004.6hPa ENE 0.9mph /  1.4km/h 5.0mph /  8km/h 32% 0.00in /  0mm 0.0 W/m2
02:45 68.9 °F /  20.5 °C 37.8 °F /  3.2 °C 29.67in /  1004.6hPa East 2.0mph /  3.2km/h 6.0mph /  9.7km/h 32% 0.00in /  0mm 0.0 W/m2
02:50 68.4 °F /  20.2 °C 37.4 °F /  3 °C 29.68in /  1005hPa NNE 2.0mph /  3.2km/h 4.0mph /  6.4km/h 32% 0.00in /  0mm 0.0 W/m2
02:56 67.8 °F /  19.9 °C 37.6 °F /  3.1 °C 29.67in /  1004.6hPa Calm   4.0mph /  6.4km/h 33% 0.00in /  0mm 0.0 W/m2
03:01 67.6 °F /  19.8 °C 37.6 °F /  3.1 °C 29.68in /  1005hPa East 0.9mph /  1.4km/h 2.0mph /  3.2km/h 33% 0.00in /  0mm 0.0 W/m2
03:06 67.5 °F /  19.7 °C 38.1 °F /  3.4 °C 29.68in /  1005hPa NE 0.9mph /  1.4km/h 4.0mph /  6.4km/h 34% 0.00in /  0mm 0.0 W/m2
03:11 67.3 °F /  19.6 °C 37.9 °F /  3.3 °C 29.68in /  1005hPa East 0.9mph /  1.4km/h 4.0mph /  6.4km/h 34% 0.00in /  0mm 0.0 W/m2
03:16 67.1 °F /  19.5 °C 37.8 °F /  3.2 °C 29.68in /  1005hPa Calm   1.0mph /  1.6km/h 34% 0.00in /  0mm 0.0 W/m2
03:21 66.9 °F /  19.4 °C 37.6 °F /  3.1 °C 29.68in /  1005hPa Calm   2.0mph /  3.2km/h 34% 0.00in /  0mm 0.0 W/m2
03:26 66.7 °F /  19.3 °C 37.4 °F /  3 °C 29.69in /  1005.3hPa East 0.9mph /  1.4km/h 4.0mph /  6.4km/h 34% 0.00in /  0mm 0.0 W/m2
03:31 66.7 °F /  19.3 °C 37.4 °F /  3 °C 29.69in /  1005.3hPa North 2.0mph /  3.2km/h 6.0mph /  9.7km/h 34% 0.00in /  0mm 0.0 W/m2
03:36 66.6 °F /  19.2 °C 37.4 °F /  3 °C 29.69in /  1005.3hPa Calm   3.0mph /  4.8km/h 34% 0.00in /  0mm 0.0 W/m2
03:42 66.6 °F /  19.2 °C 37.4 °F /  3 °C 29.70in /  1005.6hPa Calm   1.0mph /  1.6km/h 34% 0.00in /  0mm 0.0 W/m2
03:47 66.4 °F /  19.1 °C 37.9 °F /  3.3 °C 29.70in /  1005.6hPa Calm   2.0mph /  3.2km/h 35% 0.00in /  0mm 0.0 W/m2
03:52 66.2 °F /  19 °C 37.8 °F /  3.2 °C 29.70in /  1005.6hPa Calm   1.0mph /  1.6km/h 35% 0.00in /  0mm 0.0 W/m2
03:57 66.0 °F /  18.9 °C 37.6 °F /  3.1 °C 29.70in /  1005.6hPa Calm   1.0mph /  1.6km/h 35% 0.00in /  0mm 0.0 W/m2
04:02 65.8 °F /  18.8 °C 37.4 °F /  3 °C 29.70in /  1005.6hPa ENE 0.9mph /  1.4km/h 1.0mph /  1.6km/h 35% 0.00in /  0mm 0.0 W/m2
04:07 65.7 °F /  18.7 °C 37.9 °F /  3.3 °C 29.69in /  1005.3hPa Calm   1.0mph /  1.6km/h 36% 0.00in /  0mm 0.0 W/m2
04:12 65.5 °F /  18.6 °C 37.8 °F /  3.2 °C 29.70in /  1005.6hPa Calm   1.0mph /  1.6km/h 36% 0.00in /  0mm 0.0 W/m2
04:18 65.1 °F /  18.4 °C 37.6 °F /  3.1 °C 29.69in /  1005.3hPa Calm     36% 0.00in /  0mm 0.0 W/m2
04:23 64.9 °F /  18.3 °C 36.7 °F /  2.6 °C 29.69in /  1005.3hPa Calm   3.0mph /  4.8km/h 35% 0.00in /  0mm 0.0 W/m2
04:28 64.9 °F /  18.3 °C 36.7 °F /  2.6 °C 29.69in /  1005.3hPa Calm   1.0mph /  1.6km/h 35% 0.00in /  0mm 0.0 W/m2
04:34 64.8 °F /  18.2 °C 37.2 °F /  2.9 °C 29.69in /  1005.3hPa Calm   1.0mph /  1.6km/h 36% 0.00in /  0mm 0.0 W/m2
04:40 64.6 °F /  18.1 °C 37.0 °F /  2.8 °C 29.69in /  1005.3hPa Calm   2.0mph /  3.2km/h 36% 0.00in /  0mm 0.0 W/m2
04:45 64.6 °F /  18.1 °C 37.8 °F /  3.2 °C 29.69in /  1005.3hPa Calm     37% 0.00in /  0mm 0.0 W/m2
04:50 64.2 °F /  17.9 °C 37.4 °F /  3 °C 29.69in /  1005.3hPa Calm     37% 0.00in /  0mm 0.0 W/m2
04:55 64.2 °F /  17.9 °C 37.4 °F /  3 °C 29.69in /  1005.3hPa Calm   1.0mph /  1.6km/h 37% 0.00in /  0mm 0.0 W/m2
05:00 64.0 °F /  17.8 °C 36.5 °F /  2.5 °C 29.69in /  1005.3hPa ENE 2.0mph /  3.2km/h 2.0mph /  3.2km/h 36% 0.00in /  0mm 0.0 W/m2
05:05 63.9 °F /  17.7 °C 35.6 °F /  2 °C 29.69in /  1005.3hPa Calm   1.0mph /  1.6km/h 35% 0.00in /  0mm 0.0 W/m2
05:10 63.9 °F /  17.7 °C 34.9 °F /  1.6 °C 29.70in /  1005.6hPa Calm   1.0mph /  1.6km/h 34% 0.00in /  0mm 0.0 W/m2
05:15 63.9 °F /  17.7 °C 35.6 °F /  2 °C 29.70in /  1005.6hPa Calm     35% 0.00in /  0mm 0.0 W/m2
05:21 63.7 °F /  17.6 °C 35.6 °F /  2 °C 29.70in /  1005.6hPa Calm   1.0mph /  1.6km/h 35% 0.00in /  0mm 0.0 W/m2
05:26 63.7 °F /  17.6 °C 35.6 °F /  2 °C 29.70in /  1005.6hPa Calm     35% 0.00in /  0mm 0.0 W/m2
05:31 63.3 °F /  17.4 °C 35.2 °F /  1.8 °C 29.70in /  1005.6hPa Calm     35% 0.00in /  0mm 0.0 W/m2
05:36 63.3 °F /  17.4 °C 36.0 °F /  2.2 °C 29.70in /  1005.6hPa Calm     36% 0.00in /  0mm 0.0 W/m2
05:41 63.3 °F /  17.4 °C 35.2 °F /  1.8 °C 29.70in /  1005.6hPa Calm   2.0mph /  3.2km/h 35% 0.00in /  0mm 0.0 W/m2
05:46 63.1 °F /  17.3 °C 34.3 °F /  1.3 °C 29.70in /  1005.6hPa NE 0.9mph /  1.4km/h 1.0mph /  1.6km/h 34% 0.00in /  0mm 0.0 W/m2
05:51 63.3 °F /  17.4 °C 34.5 °F /  1.4 °C 29.70in /  1005.6hPa Calm   1.0mph /  1.6km/h 34% 0.00in /  0mm 0.0 W/m2
05:56 63.3 °F /  17.4 °C 33.8 °F /  1 °C 29.70in /  1005.6hPa Calm   1.0mph /  1.6km/h 33% 0.00in /  0mm 0.0 W/m2
06:02 63.3 °F /  17.4 °C 34.5 °F /  1.4 °C 29.71in /  1006hPa SSW 0.9mph /  1.4km/h 3.0mph /  4.8km/h 34% 0.00in /  0mm 0.0 W/m2
06:07 63.7 °F /  17.6 °C 34.7 °F /  1.5 °C 29.71in /  1006hPa Calm   1.0mph /  1.6km/h 34% 0.00in /  0mm 0.0 W/m2
06:12 63.7 °F /  17.6 °C 34.7 °F /  1.5 °C 29.71in /  1006hPa Calm   1.0mph /  1.6km/h 34% 0.00in /  0mm 0.0 W/m2
06:17 63.7 °F /  17.6 °C 35.6 °F /  2 °C 29.71in /  1006hPa Calm     35% 0.00in /  0mm 0.0 W/m2
06:22 63.7 °F /  17.6 °C 36.1 °F /  2.3 °C 29.71in /  1006hPa Calm     36% 0.00in /  0mm 0.0 W/m2
06:27 63.3 °F /  17.4 °C 36.0 °F /  2.2 °C 29.72in /  1006.3hPa Calm     36% 0.00in /  0mm 0.0 W/m2
06:32 63.3 °F /  17.4 °C 36.0 °F /  2.2 °C 29.72in /  1006.3hPa Calm   1.0mph /  1.6km/h 36% 0.00in /  0mm 0.0 W/m2
06:37 63.0 °F /  17.2 °C 35.6 °F /  2 °C 29.72in /  1006.3hPa Calm     36% 0.00in /  0mm 5.0 W/m2
06:42 62.8 °F /  17.1 °C 35.4 °F /  1.9 °C 29.72in /  1006.3hPa Calm     36% 0.00in /  0mm 7.0 W/m2
06:47 62.8 °F /  17.1 °C 36.1 °F /  2.3 °C 29.72in /  1006.3hPa Calm     37% 0.00in /  0mm 9.0 W/m2
06:53 62.4 °F /  16.9 °C 35.8 °F /  2.1 °C 29.72in /  1006.3hPa Calm     37% 0.00in /  0mm 12.0 W/m2
06:58 62.4 °F /  16.9 °C 37.2 °F /  2.9 °C 29.73in /  1006.7hPa Calm     39% 0.00in /  0mm 16.0 W/m2
07:03 62.2 °F /  16.8 °C 37.0 °F /  2.8 °C 29.73in /  1006.7hPa Calm     39% 0.00in /  0mm 19.0 W/m2
07:08 62.1 °F /  16.7 °C 36.9 °F /  2.7 °C 29.73in /  1006.7hPa Calm   1.0mph /  1.6km/h 39% 0.00in /  0mm 21.0 W/m2
07:13 62.1 °F /  16.7 °C 38.1 °F /  3.4 °C 29.74in /  1007hPa SSE 2.0mph /  3.2km/h 3.0mph /  4.8km/h 41% 0.00in /  0mm 21.0 W/m2
07:18 62.1 °F /  16.7 °C 35.4 °F /  1.9 °C 29.73in /  1006.7hPa Calm   1.0mph /  1.6km/h 37% 0.00in /  0mm 25.0 W/m2
07:23 62.4 °F /  16.9 °C 37.2 °F /  2.9 °C 29.74in /  1007hPa Calm     39% 0.00in /  0mm 26.0 W/m2
07:28 62.8 °F /  17.1 °C 38.1 °F /  3.4 °C 29.74in /  1007hPa Calm     40% 0.00in /  0mm 28.0 W/m2
07:34 63.0 °F /  17.2 °C 37.6 °F /  3.1 °C 29.74in /  1007hPa Calm     39% 0.00in /  0mm 30.0 W/m2
07:39 63.1 °F /  17.3 °C 37.0 °F /  2.8 °C 29.74in /  1007hPa Calm     38% 0.00in /  0mm 32.0 W/m2
07:44 63.5 °F /  17.5 °C 38.7 °F /  3.7 °C 29.74in /  1007hPa Calm   1.0mph /  1.6km/h 40% 0.00in /  0mm 118.0 W/m2
07:49 64.0 °F /  17.8 °C 38.7 °F /  3.7 °C 29.74in /  1007hPa Calm   1.0mph /  1.6km/h 39% 0.00in /  0mm 257.0 W/m2
07:54 64.8 °F /  18.2 °C 39.9 °F /  4.4 °C 29.74in /  1007hPa Calm     40% 0.00in /  0mm 130.0 W/m2
07:59 65.7 °F /  18.7 °C 41.9 °F /  5.5 °C 29.74in /  1007hPa NE 0.9mph /  1.4km/h 3.0mph /  4.8km/h 42% 0.00in /  0mm 262.0 W/m2
08:04 66.7 °F /  19.3 °C 46.4 °F /  8 °C 29.75in /  1007.3hPa NNW 0.9mph /  1.4km/h 3.0mph /  4.8km/h 48% 0.00in /  0mm 220.0 W/m2
08:09 67.6 °F /  19.8 °C 45.5 °F /  7.5 °C 29.75in /  1007.3hPa Calm   1.0mph /  1.6km/h 45% 0.00in /  0mm 355.0 W/m2
08:15 68.5 °F /  20.3 °C 43.9 °F /  6.6 °C 29.75in /  1007.3hPa NNW 4.0mph /  6.4km/h 4.0mph /  6.4km/h 41% 0.00in /  0mm 364.0 W/m2
08:20 69.4 °F /  20.8 °C 43.3 °F /  6.3 °C 29.75in /  1007.3hPa North 0.9mph /  1.4km/h 3.0mph /  4.8km/h 39% 0.00in /  0mm 343.0 W/m2
08:25 70.5 °F /  21.4 °C 41.5 °F /  5.3 °C 29.74in /  1007hPa Calm   2.0mph /  3.2km/h 35% 0.00in /  0mm 353.0 W/m2
08:30 71.6 °F /  22 °C 46.6 °F /  8.1 °C 29.74in /  1007hPa NNW 2.0mph /  3.2km/h 5.0mph /  8km/h 41% 0.00in /  0mm 332.0 W/m2
08:35 72.3 °F /  22.4 °C 49.1 °F /  9.5 °C 29.74in /  1007hPa NNW 0.9mph /  1.4km/h 5.0mph /  8km/h 44% 0.00in /  0mm 301.0 W/m2
08:40 72.9 °F /  22.7 °C 47.8 °F /  8.8 °C 29.74in /  1007hPa NNW 2.0mph /  3.2km/h 6.0mph /  9.7km/h 41% 0.00in /  0mm 452.0 W/m2
08:45 73.2 °F /  22.9 °C 49.5 °F /  9.7 °C 29.74in /  1007hPa NW 4.9mph /  7.9km/h 5.0mph /  8km/h 43% 0.00in /  0mm 367.0 W/m2
08:50 73.2 °F /  22.9 °C 50.0 °F /  10 °C 29.74in /  1007hPa NNW 2.9mph /  4.7km/h 6.0mph /  9.7km/h 44% 0.00in /  0mm 380.0 W/m2
08:56 73.6 °F /  23.1 °C 50.9 °F /  10.5 °C 29.74in /  1007hPa Calm   3.0mph /  4.8km/h 45% 0.00in /  0mm 387.0 W/m2
09:01 73.6 °F /  23.1 °C 51.4 °F /  10.8 °C 29.73in /  1006.7hPa Calm   6.0mph /  9.7km/h 46% 0.00in /  0mm 309.0 W/m2
09:06 73.8 °F /  23.2 °C 52.3 °F /  11.3 °C 29.73in /  1006.7hPa NNW 2.0mph /  3.2km/h 4.0mph /  6.4km/h 47% 0.00in /  0mm 323.0 W/m2
09:11 73.9 °F /  23.3 °C 52.5 °F /  11.4 °C 29.73in /  1006.7hPa NW 2.0mph /  3.2km/h 3.0mph /  4.8km/h 47% 0.00in /  0mm 376.0 W/m2
09:16 74.1 °F /  23.4 °C 52.0 °F /  11.1 °C 29.73in /  1006.7hPa West 2.9mph /  4.7km/h 3.0mph /  4.8km/h 46% 0.00in /  0mm 360.0 W/m2
09:21 74.1 °F /  23.4 °C 52.0 °F /  11.1 °C 29.73in /  1006.7hPa NNE 2.9mph /  4.7km/h 3.0mph /  4.8km/h 46% 0.00in /  0mm 489.0 W/m2
09:26 74.3 °F /  23.5 °C 52.2 °F /  11.2 °C 29.72in /  1006.3hPa WSW 0.9mph /  1.4km/h 2.0mph /  3.2km/h 46% 0.00in /  0mm 459.0 W/m2
09:31 74.5 °F /  23.6 °C 52.3 °F /  11.3 °C 29.72in /  1006.3hPa WSW 0.9mph /  1.4km/h 3.0mph /  4.8km/h 46% 0.00in /  0mm 513.0 W/m2
09:36 74.7 °F /  23.7 °C 52.0 °F /  11.1 °C 29.72in /  1006.3hPa WSW 2.0mph /  3.2km/h 5.0mph /  8km/h 45% 0.00in /  0mm 541.0 W/m2
09:41 74.8 °F /  23.8 °C 52.2 °F /  11.2 °C 29.72in /  1006.3hPa Calm   1.0mph /  1.6km/h 45% 0.00in /  0mm 520.0 W/m2
09:47 75.0 °F /  23.9 °C 51.6 °F /  10.9 °C 29.72in /  1006.3hPa Calm   3.0mph /  4.8km/h 44% 0.00in /  0mm 543.0 W/m2
09:52 75.4 °F /  24.1 °C 51.3 °F /  10.7 °C 29.72in /  1006.3hPa NW 0.9mph /  1.4km/h 2.0mph /  3.2km/h 43% 0.00in /  0mm 506.0 W/m2
09:57 75.7 °F /  24.3 °C 51.1 °F /  10.6 °C 29.72in /  1006.3hPa Calm   2.0mph /  3.2km/h 42% 0.00in /  0mm 666.0 W/m2
10:02 75.9 °F /  24.4 °C 51.8 °F /  11 °C 29.72in /  1006.3hPa West 2.0mph /  3.2km/h 3.0mph /  4.8km/h 43% 0.00in /  0mm 715.0 W/m2
10:07 76.1 °F /  24.5 °C 51.3 °F /  10.7 °C 29.72in /  1006.3hPa SW 0.9mph /  1.4km/h 4.0mph /  6.4km/h 42% 0.00in /  0mm 564.0 W/m2
10:12 76.1 °F /  24.5 °C 51.3 °F /  10.7 °C 29.71in /  1006hPa Calm   2.0mph /  3.2km/h 42% 0.00in /  0mm 745.0 W/m2
10:17 76.3 °F /  24.6 °C 50.9 °F /  10.5 °C 29.71in /  1006hPa North 0.9mph /  1.4km/h 5.0mph /  8km/h 41% 0.00in /  0mm 773.0 W/m2
10:22 76.8 °F /  24.9 °C 51.3 °F /  10.7 °C 29.71in /  1006hPa SSW 2.9mph /  4.7km/h 5.0mph /  8km/h 41% 0.00in /  0mm 893.0 W/m2
10:28 77.2 °F /  25.1 °C 51.1 °F /  10.6 °C 29.71in /  1006hPa South 0.9mph /  1.4km/h 6.0mph /  9.7km/h 40% 0.00in /  0mm 902.0 W/m2
10:33 77.7 °F /  25.4 °C 50.7 °F /  10.4 °C 29.70in /  1005.6hPa SSW 4.0mph /  6.4km/h 4.0mph /  6.4km/h 39% 0.00in /  0mm 914.0 W/m2
10:38 78.6 °F /  25.9 °C 50.2 °F /  10.1 °C 29.70in /  1005.6hPa SW 2.0mph /  3.2km/h 2.0mph /  3.2km/h 37% 0.00in /  0mm 925.0 W/m2
10:43 79.5 °F /  26.4 °C 50.2 °F /  10.1 °C 29.70in /  1005.6hPa Calm   6.0mph /  9.7km/h 36% 0.00in /  0mm 935.0 W/m2
10:48 79.9 °F /  26.6 °C 49.8 °F /  9.9 °C 29.70in /  1005.6hPa WSW 2.0mph /  3.2km/h 3.0mph /  4.8km/h 35% 0.00in /  0mm 939.0 W/m2
10:53 80.2 °F /  26.8 °C 49.3 °F /  9.6 °C 29.70in /  1005.6hPa West 2.0mph /  3.2km/h 3.0mph /  4.8km/h 34% 0.00in /  0mm 949.0 W/m2
10:58 81.0 °F /  27.2 °C 49.1 °F /  9.5 °C 29.70in /  1005.6hPa Calm   2.0mph /  3.2km/h 33% 0.00in /  0mm 960.0 W/m2
11:04 82.0 °F /  27.8 °C 48.4 °F /  9.1 °C 29.70in /  1005.6hPa West 0.9mph /  1.4km/h 7.0mph /  11.3km/h 31% 0.00in /  0mm 916.0 W/m2
11:09 81.9 °F /  27.7 °C 48.2 °F /  9 °C 29.70in /  1005.6hPa WSW 2.0mph /  3.2km/h 5.0mph /  8km/h 31% 0.00in /  0mm 896.0 W/m2
11:15 81.7 °F /  27.6 °C 47.3 °F /  8.5 °C 29.69in /  1005.3hPa Calm   2.0mph /  3.2km/h 30% 0.00in /  0mm 911.0 W/m2
11:20 82.2 °F /  27.9 °C 47.7 °F /  8.7 °C 29.69in /  1005.3hPa WSW 2.9mph /  4.7km/h 6.0mph /  9.7km/h 30% 0.00in /  0mm 1005.0 W/m2
11:25 82.8 °F /  28.2 °C 47.3 °F /  8.5 °C 29.70in /  1005.6hPa West 2.9mph /  4.7km/h 7.0mph /  11.3km/h 29% 0.00in /  0mm 969.0 W/m2
11:30 82.9 °F /  28.3 °C 46.4 °F /  8 °C 29.69in /  1005.3hPa West 2.0mph /  3.2km/h 4.0mph /  6.4km/h 28% 0.00in /  0mm 930.0 W/m2
11:35 83.7 °F /  28.7 °C 46.2 °F /  7.9 °C 29.69in /  1005.3hPa Calm   4.0mph /  6.4km/h 27% 0.00in /  0mm 983.0 W/m2
11:40 84.6 °F /  29.2 °C 45.9 °F /  7.7 °C 29.69in /  1005.3hPa Calm   7.0mph /  11.3km/h 26% 0.00in /  0mm 1020.0 W/m2
11:45 85.3 °F /  29.6 °C 45.5 °F /  7.5 °C 29.69in /  1005.3hPa SW 0.9mph /  1.4km/h 2.0mph /  3.2km/h 25% 0.00in /  0mm 986.0 W/m2
11:50 85.8 °F /  29.9 °C 45.9 °F /  7.7 °C 29.68in /  1005hPa SW 2.9mph /  4.7km/h 5.0mph /  8km/h 25% 0.00in /  0mm 1034.0 W/m2
11:55 85.8 °F /  29.9 °C 44.8 °F /  7.1 °C 29.68in /  1005hPa Calm   3.0mph /  4.8km/h 24% 0.00in /  0mm 1039.0 W/m2
12:00 86.5 °F /  30.3 °C 45.5 °F /  7.5 °C 29.68in /  1005hPa NNW 0.9mph /  1.4km/h 3.0mph /  4.8km/h 24% 0.00in /  0mm 1027.0 W/m2
12:06 87.3 °F /  30.7 °C 45.0 °F /  7.2 °C 29.68in /  1005hPa SW 4.9mph /  7.9km/h 8.0mph /  12.9km/h 23% 0.00in /  0mm 1023.0 W/m2
12:11 87.1 °F /  30.6 °C 43.7 °F /  6.5 °C 29.68in /  1005hPa SSW 0.9mph /  1.4km/h 5.0mph /  8km/h 22% 0.00in /  0mm 1062.0 W/m2
12:16 87.1 °F /  30.6 °C 43.7 °F /  6.5 °C 29.68in /  1005hPa Calm   8.0mph /  12.9km/h 22% 0.00in /  0mm 1041.0 W/m2
12:21 87.3 °F /  30.7 °C 43.7 °F /  6.5 °C 29.67in /  1004.6hPa SSW 2.0mph /  3.2km/h 4.0mph /  6.4km/h 22% 0.00in /  0mm 1053.0 W/m2
12:26 88.0 °F /  31.1 °C 43.2 °F /  6.2 °C 29.67in /  1004.6hPa Calm   6.0mph /  9.7km/h 21% 0.00in /  0mm 981.0 W/m2
12:32 88.3 °F /  31.3 °C 43.5 °F /  6.4 °C 29.67in /  1004.6hPa WNW 0.9mph /  1.4km/h 4.0mph /  6.4km/h 21% 0.00in /  0mm 1074.0 W/m2
12:37 89.1 °F /  31.7 °C 44.1 °F /  6.7 °C 29.67in /  1004.6hPa WSW 2.0mph /  3.2km/h 8.0mph /  12.9km/h 21% 0.00in /  0mm 1060.0 W/m2
12:42 89.2 °F /  31.8 °C 44.2 °F /  6.8 °C 29.67in /  1004.6hPa NNW 0.9mph /  1.4km/h 2.0mph /  3.2km/h 21% 0.00in /  0mm 1074.0 W/m2
12:47 90.0 °F /  32.2 °C 44.8 °F /  7.1 °C 29.66in /  1004.3hPa NNW 4.0mph /  6.4km/h 6.0mph /  9.7km/h 21% 0.00in /  0mm 1093.0 W/m2
12:52 90.3 °F /  32.4 °C 45.1 °F /  7.3 °C 29.66in /  1004.3hPa NNW 2.9mph /  4.7km/h 7.0mph /  11.3km/h 21% 0.00in /  0mm 919.0 W/m2
12:58 90.7 °F /  32.6 °C 45.3 °F /  7.4 °C 29.66in /  1004.3hPa West 2.9mph /  4.7km/h 3.0mph /  4.8km/h 21% 0.00in /  0mm 1111.0 W/m2
13:03 90.9 °F /  32.7 °C 44.2 °F /  6.8 °C 29.66in /  1004.3hPa West 0.9mph /  1.4km/h 7.0mph /  11.3km/h 20% 0.00in /  0mm 1095.0 W/m2
13:08 90.7 °F /  32.6 °C 45.3 °F /  7.4 °C 29.66in /  1004.3hPa NNW 2.9mph /  4.7km/h 5.0mph /  8km/h 21% 0.00in /  0mm 1081.0 W/m2
13:13 91.0 °F /  32.8 °C 45.7 °F /  7.6 °C 29.65in /  1003.9hPa North 4.0mph /  6.4km/h 8.0mph /  12.9km/h 21% 0.00in /  0mm 1072.0 W/m2
13:18 91.6 °F /  33.1 °C 46.0 °F /  7.8 °C 29.65in /  1003.9hPa NW 2.0mph /  3.2km/h 5.0mph /  8km/h 21% 0.00in /  0mm 1076.0 W/m2
13:23 91.9 °F /  33.3 °C 45.1 °F /  7.3 °C 29.65in /  1003.9hPa NE 2.0mph /  3.2km/h 6.0mph /  9.7km/h 20% 0.00in /  0mm 1071.0 W/m2
13:28 91.9 °F /  33.3 °C 45.1 °F /  7.3 °C 29.65in /  1003.9hPa NW 0.9mph /  1.4km/h 4.0mph /  6.4km/h 20% 0.00in /  0mm 1083.0 W/m2
13:33 92.3 °F /  33.5 °C 45.5 °F /  7.5 °C 29.64in /  1003.6hPa WSW 0.9mph /  1.4km/h 5.0mph /  8km/h 20% 0.00in /  0mm 1044.0 W/m2
13:38 91.8 °F /  33.2 °C 45.0 °F /  7.2 °C 29.64in /  1003.6hPa SW 0.9mph /  1.4km/h 4.0mph /  6.4km/h 20% 0.00in /  0mm 867.0 W/m2
13:44 91.8 °F /  33.2 °C 45.0 °F /  7.2 °C 29.64in /  1003.6hPa WSW 2.0mph /  3.2km/h 5.0mph /  8km/h 20% 0.00in /  0mm 847.0 W/m2
13:49 92.1 °F /  33.4 °C 45.3 °F /  7.4 °C 29.64in /  1003.6hPa NNW 2.0mph /  3.2km/h 8.0mph /  12.9km/h 20% 0.00in /  0mm 1106.0 W/m2
13:54 92.8 °F /  33.8 °C 45.9 °F /  7.7 °C 29.63in /  1003.3hPa WNW 0.9mph /  1.4km/h 8.0mph /  12.9km/h 20% 0.00in /  0mm 1109.0 W/m2
13:59 92.7 °F /  33.7 °C 45.7 °F /  7.6 °C 29.63in /  1003.3hPa SSW 2.9mph /  4.7km/h 9.0mph /  14.5km/h 20% 0.00in /  0mm 1137.0 W/m2
14:04 92.3 °F /  33.5 °C 45.5 °F /  7.5 °C 29.63in /  1003.3hPa West 6.9mph /  11.1km/h 9.0mph /  14.5km/h 20% 0.00in /  0mm 1136.0 W/m2
14:09 91.8 °F /  33.2 °C 45.0 °F /  7.2 °C 29.63in /  1003.3hPa SSE 0.9mph /  1.4km/h 12.0mph /  19.3km/h 20% 0.00in /  0mm 1007.0 W/m2
14:14 91.6 °F /  33.1 °C 44.8 °F /  7.1 °C 29.63in /  1003.3hPa NNW 4.9mph /  7.9km/h 9.0mph /  14.5km/h 20% 0.00in /  0mm 926.0 W/m2
14:19 91.6 °F /  33.1 °C 44.8 °F /  7.1 °C 29.62in /  1002.9hPa WSW 4.0mph /  6.4km/h 4.0mph /  6.4km/h 20% 0.00in /  0mm 522.0 W/m2
14:24 91.0 °F /  32.8 °C 45.7 °F /  7.6 °C 29.62in /  1002.9hPa WSW 2.9mph /  4.7km/h 4.0mph /  6.4km/h 21% 0.00in /  0mm 563.0 W/m2
14:29 91.4 °F /  33 °C 44.8 °F /  7.1 °C 29.62in /  1002.9hPa NNW 4.9mph /  7.9km/h 8.0mph /  12.9km/h 20% 0.00in /  0mm 1042.0 W/m2
14:35 91.8 °F /  33.2 °C 45.0 °F /  7.2 °C 29.61in /  1002.6hPa NW 6.0mph /  9.7km/h 6.0mph /  9.7km/h 20% 0.00in /  0mm 476.0 W/m2
14:40 91.8 °F /  33.2 °C 45.0 °F /  7.2 °C 29.62in /  1002.9hPa North 4.0mph /  6.4km/h 7.0mph /  11.3km/h 20% 0.00in /  0mm 425.0 W/m2
14:45 91.9 °F /  33.3 °C 43.7 °F /  6.5 °C 29.61in /  1002.6hPa NE 2.9mph /  4.7km/h 5.0mph /  8km/h 19% 0.00in /  0mm 1181.0 W/m2
14:50 92.3 °F /  33.5 °C 44.1 °F /  6.7 °C 29.60in /  1002.3hPa Calm   5.0mph /  8km/h 19% 0.00in /  0mm 1218.0 W/m2
14:55 93.0 °F /  33.9 °C 44.6 °F /  7 °C 29.61in /  1002.6hPa WSW 0.9mph /  1.4km/h 3.0mph /  4.8km/h 19% 0.00in /  0mm 983.0 W/m2
15:00 94.3 °F /  34.6 °C 44.2 °F /  6.8 °C 29.60in /  1002.3hPa SW 4.0mph /  6.4km/h 4.0mph /  6.4km/h 18% 0.00in /  0mm 751.0 W/m2
15:05 94.6 °F /  34.8 °C 44.6 °F /  7 °C 29.60in /  1002.3hPa West 6.0mph /  9.7km/h 10.0mph /  16.1km/h 18% 0.00in /  0mm 707.0 W/m2
15:10 94.1 °F /  34.5 °C 44.1 °F /  6.7 °C 29.59in /  1001.9hPa West 10.1mph /  16.3km/h 10.1mph /  16.3km/h 18% 0.00in /  0mm 383.0 W/m2
15:15 92.8 °F /  33.8 °C 44.6 °F /  7 °C 29.59in /  1001.9hPa SW 2.9mph /  4.7km/h 4.0mph /  6.4km/h 19% 0.00in /  0mm 306.0 W/m2
15:20 92.1 °F /  33.4 °C 43.9 °F /  6.6 °C 29.59in /  1001.9hPa West 2.0mph /  3.2km/h 6.0mph /  9.7km/h 19% 0.00in /  0mm 225.0 W/m2
15:26 91.6 °F /  33.1 °C 43.5 °F /  6.4 °C 29.59in /  1001.9hPa Calm   1.0mph /  1.6km/h 19% 0.00in /  0mm 227.0 W/m2
15:31 91.2 °F /  32.9 °C 44.6 °F /  7 °C 29.59in /  1001.9hPa NNE 2.9mph /  4.7km/h 5.0mph /  8km/h 20% 0.00in /  0mm 262.0 W/m2
15:36 90.9 °F /  32.7 °C 44.2 °F /  6.8 °C 29.59in /  1001.9hPa ENE 2.0mph /  3.2km/h 7.0mph /  11.3km/h 20% 0.00in /  0mm 234.0 W/m2
15:41 90.3 °F /  32.4 °C 45.1 °F /  7.3 °C 29.59in /  1001.9hPa North 6.0mph /  9.7km/h 10.0mph /  16.1km/h 21% 0.00in /  0mm 200.0 W/m2
15:46 90.0 °F /  32.2 °C 44.8 °F /  7.1 °C 29.59in /  1001.9hPa NE 10.1mph /  16.3km/h 10.1mph /  16.3km/h 21% 0.00in /  0mm 158.0 W/m2
15:51 89.2 °F /  31.8 °C 44.2 °F /  6.8 °C 29.58in /  1001.6hPa NE 4.0mph /  6.4km/h 9.0mph /  14.5km/h 21% 0.00in /  0mm 144.0 W/m2
15:56 88.9 °F /  31.6 °C 43.9 °F /  6.6 °C 29.58in /  1001.6hPa Calm   5.0mph /  8km/h 21% 0.00in /  0mm 148.0 W/m2
16:01 88.9 °F /  31.6 °C 43.9 °F /  6.6 °C 29.58in /  1001.6hPa NNE 4.0mph /  6.4km/h 9.0mph /  14.5km/h 21% 0.00in /  0mm 185.0 W/m2
16:06 88.7 °F /  31.5 °C 45.0 °F /  7.2 °C 29.58in /  1001.6hPa NE 4.0mph /  6.4km/h 5.0mph /  8km/h 22% 0.00in /  0mm 185.0 W/m2
16:12 88.9 °F /  31.6 °C 45.1 °F /  7.3 °C 29.58in /  1001.6hPa East 2.0mph /  3.2km/h 7.0mph /  11.3km/h 22% 0.00in /  0mm 165.0 W/m2
16:17 88.5 °F /  31.4 °C 44.8 °F /  7.1 °C 29.57in /  1001.2hPa ENE 0.9mph /  1.4km/h 8.0mph /  12.9km/h 22% 0.00in /  0mm 160.0 W/m2
16:22 88.3 °F /  31.3 °C 44.6 °F /  7 °C 29.57in /  1001.2hPa ENE 6.0mph /  9.7km/h 12.0mph /  19.3km/h 22% 0.00in /  0mm 146.0 W/m2
16:27 88.0 °F /  31.1 °C 44.4 °F /  6.9 °C 29.57in /  1001.2hPa ENE 2.0mph /  3.2km/h 12.0mph /  19.3km/h 22% 0.00in /  0mm 120.0 W/m2
16:32 87.6 °F /  30.9 °C 45.3 °F /  7.4 °C 29.57in /  1001.2hPa ENE 0.9mph /  1.4km/h 4.0mph /  6.4km/h 23% 0.00in /  0mm 100.0 W/m2
16:37 87.3 °F /  30.7 °C 45.0 °F /  7.2 °C 29.57in /  1001.2hPa NE 0.9mph /  1.4km/h 9.0mph /  14.5km/h 23% 0.00in /  0mm 81.0 W/m2
16:42 87.1 °F /  30.6 °C 45.9 °F /  7.7 °C 29.57in /  1001.2hPa NE 2.0mph /  3.2km/h 10.0mph /  16.1km/h 24% 0.00in /  0mm 69.0 W/m2
16:47 86.7 °F /  30.4 °C 45.7 °F /  7.6 °C 29.58in /  1001.6hPa Calm   5.0mph /  8km/h 24% 0.00in /  0mm 60.0 W/m2
16:52 86.7 °F /  30.4 °C 45.7 °F /  7.6 °C 29.58in /  1001.6hPa WNW 0.9mph /  1.4km/h 5.0mph /  8km/h 24% 0.00in /  0mm 62.0 W/m2
16:58 86.2 °F /  30.1 °C 48.2 °F /  9 °C 29.58in /  1001.6hPa NNW 4.0mph /  6.4km/h 6.0mph /  9.7km/h 27% 0.00in /  0mm 88.0 W/m2
17:03 84.7 °F /  29.3 °C 48.9 °F /  9.4 °C 29.58in /  1001.6hPa NNW 6.9mph /  11.1km/h 13.0mph /  20.9km/h 29% 0.00in /  0mm 104.0 W/m2
17:08 83.8 °F /  28.8 °C 49.1 °F /  9.5 °C 29.58in /  1001.6hPa WNW 8.1mph /  13km/h 12.0mph /  19.3km/h 30% 0.00in /  0mm 97.0 W/m2
17:13 82.6 °F /  28.1 °C 48.9 °F /  9.4 °C 29.58in /  1001.6hPa WNW 2.9mph /  4.7km/h 15.0mph /  24.1km/h 31% 0.00in /  0mm 97.0 W/m2
17:18 81.9 °F /  27.7 °C 49.1 °F /  9.5 °C 29.58in /  1001.6hPa NNW 6.9mph /  11.1km/h 8.0mph /  12.9km/h 32% 0.00in /  0mm 111.0 W/m2
17:23 81.3 °F /  27.4 °C 48.6 °F /  9.2 °C 29.58in /  1001.6hPa NNW 6.9mph /  11.1km/h 14.0mph /  22.5km/h 32% 0.00in /  0mm 93.0 W/m2
17:28 81.1 °F /  27.3 °C 48.6 °F /  9.2 °C 29.58in /  1001.6hPa NW 4.0mph /  6.4km/h 9.0mph /  14.5km/h 32% 0.00in /  0mm 84.0 W/m2
17:33 81.0 °F /  27.2 °C 48.4 °F /  9.1 °C 29.58in /  1001.6hPa NW 8.1mph /  13km/h 11.0mph /  17.7km/h 32% 0.00in /  0mm 76.0 W/m2
17:38 80.8 °F /  27.1 °C 48.2 °F /  9 °C 29.58in /  1001.6hPa North 8.1mph /  13km/h 14.0mph /  22.5km/h 32% 0.00in /  0mm 70.0 W/m2
17:44 81.0 °F /  27.2 °C 47.5 °F /  8.6 °C 29.58in /  1001.6hPa NNW 6.0mph /  9.7km/h 8.0mph /  12.9km/h 31% 0.00in /  0mm 70.0 W/m2
17:49 81.0 °F /  27.2 °C 46.6 °F /  8.1 °C 29.58in /  1001.6hPa NNW 4.9mph /  7.9km/h 11.0mph /  17.7km/h 30% 0.00in /  0mm 70.0 W/m2
17:54 81.3 °F /  27.4 °C 46.0 °F /  7.8 °C 29.58in /  1001.6hPa NNW 6.9mph /  11.1km/h 12.0mph /  19.3km/h 29% 0.00in /  0mm 63.0 W/m2
17:59 81.7 °F /  27.6 °C 46.4 °F /  8 °C 29.59in /  1001.9hPa WNW 2.0mph /  3.2km/h 8.0mph /  12.9km/h 29% 0.00in /  0mm 58.0 W/m2
18:04 81.9 °F /  27.7 °C 46.4 °F /  8 °C 29.59in /  1001.9hPa North 0.9mph /  1.4km/h 11.0mph /  17.7km/h 29% 0.00in /  0mm 283.0 W/m2
18:09 82.4 °F /  28 °C 47.8 °F /  8.8 °C 29.59in /  1001.9hPa NW 2.0mph /  3.2km/h 5.0mph /  8km/h 30% 0.00in /  0mm 39.0 W/m2
18:14 82.4 °F /  28 °C 48.7 °F /  9.3 °C 29.59in /  1001.9hPa North 2.0mph /  3.2km/h 9.0mph /  14.5km/h 31% 0.00in /  0mm 39.0 W/m2
18:19 81.9 °F /  27.7 °C 48.2 °F /  9 °C 29.59in /  1001.9hPa NW 6.9mph /  11.1km/h 8.0mph /  12.9km/h 31% 0.00in /  0mm 40.0 W/m2
18:25 81.3 °F /  27.4 °C 48.6 °F /  9.2 °C 29.59in /  1001.9hPa NW 0.9mph /  1.4km/h 5.0mph /  8km/h 32% 0.00in /  0mm 39.0 W/m2
18:30 81.1 °F /  27.3 °C 48.6 °F /  9.2 °C 29.59in /  1001.9hPa West 2.0mph /  3.2km/h 8.0mph /  12.9km/h 32% 0.00in /  0mm 37.0 W/m2
18:35 80.8 °F /  27.1 °C 48.9 °F /  9.4 °C 29.59in /  1001.9hPa NW 2.9mph /  4.7km/h 9.0mph /  14.5km/h 33% 0.00in /  0mm 42.0 W/m2
18:40 80.6 °F /  27 °C 48.9 °F /  9.4 °C 29.59in /  1001.9hPa North 6.0mph /  9.7km/h 9.0mph /  14.5km/h 33% 0.00in /  0mm 47.0 W/m2
18:45 80.4 °F /  26.9 °C 47.8 °F /  8.8 °C 29.59in /  1001.9hPa NNW 4.9mph /  7.9km/h 7.0mph /  11.3km/h 32% 0.00in /  0mm 46.0 W/m2
18:50 80.6 °F /  27 °C 47.1 °F /  8.4 °C 29.59in /  1001.9hPa NNW 0.9mph /  1.4km/h 3.0mph /  4.8km/h 31% 0.00in /  0mm 44.0 W/m2
18:55 80.8 °F /  27.1 °C 47.3 °F /  8.5 °C 29.59in /  1001.9hPa WNW 0.9mph /  1.4km/h 2.0mph /  3.2km/h 31% 0.00in /  0mm 46.0 W/m2
19:00 80.8 °F /  27.1 °C 46.4 °F /  8 °C 29.60in /  1002.3hPa NW 0.9mph /  1.4km/h 9.0mph /  14.5km/h 30% 0.00in /  0mm 46.0 W/m2
19:06 81.0 °F /  27.2 °C 47.5 °F /  8.6 °C 29.60in /  1002.3hPa West 0.9mph /  1.4km/h 5.0mph /  8km/h 31% 0.00in /  0mm 37.0 W/m2
19:11 81.0 °F /  27.2 °C 47.5 °F /  8.6 °C 29.60in /  1002.3hPa NNW 0.9mph /  1.4km/h 3.0mph /  4.8km/h 31% 0.00in /  0mm 28.0 W/m2
19:17 81.0 °F /  27.2 °C 47.5 °F /  8.6 °C 29.60in /  1002.3hPa Calm     31% 0.00in /  0mm 23.0 W/m2
19:22 81.0 °F /  27.2 °C 47.5 °F /  8.6 °C 29.60in /  1002.3hPa Calm     31% 0.00in /  0mm 19.0 W/m2
19:27 81.0 °F /  27.2 °C 47.5 °F /  8.6 °C 29.60in /  1002.3hPa NE 0.9mph /  1.4km/h 1.0mph /  1.6km/h 31% 0.00in /  0mm 12.0 W/m2
19:32 81.0 °F /  27.2 °C 47.5 °F /  8.6 °C 29.60in /  1002.3hPa Calm   2.0mph /  3.2km/h 31% 0.00in /  0mm 11.0 W/m2
19:37 81.0 °F /  27.2 °C 46.6 °F /  8.1 °C 29.60in /  1002.3hPa Calm   1.0mph /  1.6km/h 30% 0.00in /  0mm 5.0 W/m2
19:42 81.0 °F /  27.2 °C 45.7 °F /  7.6 °C 29.60in /  1002.3hPa Calm     29% 0.00in /  0mm 0.0 W/m2
19:48 81.1 °F /  27.3 °C 45.9 °F /  7.7 °C 29.61in /  1002.6hPa Calm   1.0mph /  1.6km/h 29% 0.00in /  0mm 0.0 W/m2
19:54 81.1 °F /  27.3 °C 45.9 °F /  7.7 °C 29.61in /  1002.6hPa West 2.9mph /  4.7km/h 5.0mph /  8km/h 29% 0.00in /  0mm 0.0 W/m2
19:59 81.1 °F /  27.3 °C 46.8 °F /  8.2 °C 29.62in /  1002.9hPa Calm   7.0mph /  11.3km/h 30% 0.00in /  0mm 0.0 W/m2
20:04 81.0 °F /  27.2 °C 46.6 °F /  8.1 °C 29.62in /  1002.9hPa Calm   1.0mph /  1.6km/h 30% 0.00in /  0mm 0.0 W/m2
20:09 81.0 °F /  27.2 °C 47.5 °F /  8.6 °C 29.63in /  1003.3hPa NNW 4.0mph /  6.4km/h 4.0mph /  6.4km/h 31% 0.00in /  0mm 0.0 W/m2
20:14 80.8 °F /  27.1 °C 47.3 °F /  8.5 °C 29.64in /  1003.6hPa North 4.9mph /  7.9km/h 11.0mph /  17.7km/h 31% 0.00in /  0mm 0.0 W/m2
20:19 80.2 °F /  26.8 °C 48.6 °F /  9.2 °C 29.64in /  1003.6hPa West 2.0mph /  3.2km/h 9.0mph /  14.5km/h 33% 0.00in /  0mm 0.0 W/m2
20:24 79.5 °F /  26.4 °C 49.5 °F /  9.7 °C 29.65in /  1003.9hPa WNW 4.9mph /  7.9km/h 8.0mph /  12.9km/h 35% 0.00in /  0mm 0.0 W/m2
20:29 78.8 °F /  26 °C 50.4 °F /  10.2 °C 29.65in /  1003.9hPa NNW 6.9mph /  11.1km/h 10.0mph /  16.1km/h 37% 0.00in /  0mm 0.0 W/m2
20:35 78.1 °F /  25.6 °C 50.4 °F /  10.2 °C 29.65in /  1003.9hPa NNE 4.0mph /  6.4km/h 10.0mph /  16.1km/h 38% 0.00in /  0mm 0.0 W/m2
20:40 77.5 °F /  25.3 °C 50.5 °F /  10.3 °C 29.65in /  1003.9hPa NW 2.0mph /  3.2km/h 6.0mph /  9.7km/h 39% 0.00in /  0mm 0.0 W/m2
20:45 77.4 °F /  25.2 °C 50.5 °F /  10.3 °C 29.65in /  1003.9hPa NNE 2.0mph /  3.2km/h 8.0mph /  12.9km/h 39% 0.00in /  0mm 0.0 W/m2
20:50 77.0 °F /  25 °C 50.2 °F /  10.1 °C 29.65in /  1003.9hPa NNE 4.0mph /  6.4km/h 7.0mph /  11.3km/h 39% 0.00in /  0mm 0.0 W/m2
20:55 76.8 °F /  24.9 °C 50.7 °F /  10.4 °C 29.65in /  1003.9hPa NNW 4.0mph /  6.4km/h 7.0mph /  11.3km/h 40% 0.00in /  0mm 0.0 W/m2
21:00 76.6 °F /  24.8 °C 50.5 °F /  10.3 °C 29.65in /  1003.9hPa NNE 2.0mph /  3.2km/h 6.0mph /  9.7km/h 40% 0.00in /  0mm 0.0 W/m2
21:06 76.5 °F /  24.7 °C 50.4 °F /  10.2 °C 29.66in /  1004.3hPa Calm   1.0mph /  1.6km/h 40% 0.00in /  0mm 0.0 W/m2
21:11 76.5 °F /  24.7 °C 51.1 °F /  10.6 °C 29.66in /  1004.3hPa North 0.9mph /  1.4km/h 5.0mph /  8km/h 41% 0.00in /  0mm 0.0 W/m2
21:16 76.5 °F /  24.7 °C 51.1 °F /  10.6 °C 29.66in /  1004.3hPa NNW 2.9mph /  4.7km/h 7.0mph /  11.3km/h 41% 0.00in /  0mm 0.0 W/m2
21:21 76.3 °F /  24.6 °C 50.9 °F /  10.5 °C 29.67in /  1004.6hPa North 2.9mph /  4.7km/h 5.0mph /  8km/h 41% 0.00in /  0mm 0.0 W/m2
21:27 76.1 °F /  24.5 °C 50.7 °F /  10.4 °C 29.67in /  1004.6hPa Calm   6.0mph /  9.7km/h 41% 0.00in /  0mm 0.0 W/m2
21:32 75.9 °F /  24.4 °C 51.3 °F /  10.7 °C 29.67in /  1004.6hPa NNE 0.9mph /  1.4km/h 5.0mph /  8km/h 42% 0.00in /  0mm 0.0 W/m2
21:37 75.7 °F /  24.3 °C 51.1 °F /  10.6 °C 29.67in /  1004.6hPa NNW 0.9mph /  1.4km/h 3.0mph /  4.8km/h 42% 0.00in /  0mm 0.0 W/m2
21:42 75.6 °F /  24.2 °C 50.9 °F /  10.5 °C 29.68in /  1005hPa NNW 0.9mph /  1.4km/h 1.0mph /  1.6km/h 42% 0.00in /  0mm 0.0 W/m2
21:47 75.6 °F /  24.2 °C 50.9 °F /  10.5 °C 29.67in /  1004.6hPa Calm   2.0mph /  3.2km/h 42% 0.00in /  0mm 0.0 W/m2
21:52 75.4 °F /  24.1 °C 50.7 °F /  10.4 °C 29.68in /  1005hPa Calm   3.0mph /  4.8km/h 42% 0.00in /  0mm 0.0 W/m2
21:57 75.2 °F /  24 °C 51.1 °F /  10.6 °C 29.68in /  1005hPa Calm     43% 0.00in /  0mm 0.0 W/m2
22:02 75.0 °F /  23.9 °C 51.1 °F /  10.6 °C 29.69in /  1005.3hPa Calm   1.0mph /  1.6km/h 43% 0.00in /  0mm 0.0 W/m2
22:07 74.8 °F /  23.8 °C 50.9 °F /  10.5 °C 29.69in /  1005.3hPa Calm     43% 0.00in /  0mm 0.0 W/m2
22:12 74.7 °F /  23.7 °C 50.7 °F /  10.4 °C 29.69in /  1005.3hPa Calm   1.0mph /  1.6km/h 43% 0.00in /  0mm 0.0 W/m2
22:18 74.5 °F /  23.6 °C 50.5 °F /  10.3 °C 29.70in /  1005.6hPa Calm     43% 0.00in /  0mm 0.0 W/m2
22:23 74.1 °F /  23.4 °C 50.9 °F /  10.5 °C 29.69in /  1005.3hPa Calm     44% 0.00in /  0mm 0.0 W/m2
22:28 73.9 °F /  23.3 °C 50.7 °F /  10.4 °C 29.70in /  1005.6hPa Calm     44% 0.00in /  0mm 0.0 W/m2
22:33 73.8 °F /  23.2 °C 50.5 °F /  10.3 °C 29.70in /  1005.6hPa Calm   1.0mph /  1.6km/h 44% 0.00in /  0mm 0.0 W/m2
22:38 73.6 °F /  23.1 °C 50.4 °F /  10.2 °C 29.70in /  1005.6hPa Calm     44% 0.00in /  0mm 0.0 W/m2
22:43 73.2 °F /  22.9 °C 50.5 °F /  10.3 °C 29.70in /  1005.6hPa Calm     45% 0.00in /  0mm 0.0 W/m2
22:48 72.9 °F /  22.7 °C 50.4 °F /  10.2 °C 29.70in /  1005.6hPa Calm     45% 0.00in /  0mm 0.0 W/m2
22:53 72.5 °F /  22.5 °C 50.0 °F /  10 °C 29.70in /  1005.6hPa Calm     45% 0.00in /  0mm 0.0 W/m2
22:59 72.1 °F /  22.3 °C 50.2 °F /  10.1 °C 29.70in /  1005.6hPa Calm     46% 0.00in /  0mm 0.0 W/m2
23:04 72.1 °F /  22.3 °C 50.2 °F /  10.1 °C 29.70in /  1005.6hPa Calm     46% 0.00in /  0mm 0.0 W/m2
23:09 71.8 °F /  22.1 °C 49.8 °F /  9.9 °C 29.70in /  1005.6hPa Calm     46% 0.00in /  0mm 0.0 W/m2
23:14 71.4 °F /  21.9 °C 50.2 °F /  10.1 °C 29.70in /  1005.6hPa Calm     47% 0.00in /  0mm 0.0 W/m2
23:19 71.2 °F /  21.8 °C 50.0 °F /  10 °C 29.70in /  1005.6hPa Calm     47% 0.00in /  0mm 0.0 W/m2
23:25 70.9 °F /  21.6 °C 49.6 °F /  9.8 °C 29.70in /  1005.6hPa Calm     47% 0.00in /  0mm 0.0 W/m2
23:30 70.5 °F /  21.4 °C 49.8 °F /  9.9 °C 29.70in /  1005.6hPa Calm     48% 0.00in /  0mm 0.0 W/m2
23:35 70.3 °F /  21.3 °C 49.6 °F /  9.8 °C 29.69in /  1005.3hPa Calm     48% 0.00in /  0mm 0.0 W/m2
23:41 70.2 °F /  21.2 °C 49.6 °F /  9.8 °C 29.69in /  1005.3hPa Calm     48% 0.00in /  0mm 0.0 W/m2
23:46 70.0 °F /  21.1 °C 50.0 °F /  10 °C 29.69in /  1005.3hPa Calm     49% 0.00in /  0mm 0.0 W/m2
23:51 69.8 °F /  21 °C 49.8 °F /  9.9 °C 29.69in /  1005.3hPa Calm     49% 0.00in /  0mm 0.0 W/m2
23:57 69.6 °F /  20.9 °C 50.2 °F /  10.1 °C 29.69in /  1005.3hPa Calm     50% 0.00in /  0mm 0.0 W/m2
Olympia, Windhoek, Namibia
Compliments of Weather Underground - 3.25 mb